createdAt,value
2023-08-12T00:00:16.869Z,65.36
2023-08-12T00:01:16.827Z,65.36
2023-08-12T00:02:16.801Z,65.26
2023-08-12T00:03:16.853Z,65.26
2023-08-12T00:04:16.771Z,65.26
2023-08-12T00:05:16.760Z,65.26
2023-08-12T00:06:16.756Z,65.36
2023-08-12T00:07:16.750Z,65.36
2023-08-12T00:08:16.714Z,65.26
2023-08-12T00:09:16.713Z,65.36
2023-08-12T00:10:16.689Z,65.36
2023-08-12T00:11:16.687Z,65.36
2023-08-12T00:12:16.663Z,65.36
2023-08-12T00:13:16.656Z,65.36
2023-08-12T00:14:16.639Z,65.36
2023-08-12T00:15:16.638Z,65.36
2023-08-12T00:16:16.645Z,65.46
2023-08-12T00:17:16.602Z,65.46
2023-08-12T00:18:16.590Z,65.36
2023-08-12T00:19:16.598Z,65.36
2023-08-12T00:20:16.572Z,65.36
2023-08-12T00:21:16.550Z,65.46
2023-08-12T00:22:16.542Z,65.46
2023-08-12T00:23:16.523Z,65.36
2023-08-12T00:24:16.508Z,65.46
2023-08-12T00:25:16.500Z,65.36
2023-08-12T00:26:16.502Z,65.46
2023-08-12T00:27:16.472Z,65.46
2023-08-12T00:28:16.479Z,65.46
2023-08-12T00:29:16.452Z,65.46
2023-08-12T00:30:16.433Z,65.46
2023-08-12T00:31:16.501Z,65.46
2023-08-12T00:32:16.412Z,65.46
2023-08-12T00:33:16.401Z,65.46
2023-08-12T00:34:16.394Z,65.46
2023-08-12T00:35:16.402Z,65.46
2023-08-12T00:36:16.462Z,65.46
2023-08-12T00:37:16.343Z,65.46
2023-08-12T00:38:16.330Z,65.46
2023-08-12T00:39:16.320Z,65.46
2023-08-12T00:40:16.310Z,65.56
2023-08-12T00:41:16.289Z,65.56
2023-08-12T00:42:16.289Z,65.56
2023-08-12T00:43:16.265Z,65.56
2023-08-12T00:44:16.253Z,65.66
2023-08-12T00:45:16.250Z,65.56
2023-08-12T00:46:16.245Z,65.56
2023-08-12T00:47:16.241Z,65.46
2023-08-12T00:48:16.202Z,65.46
2023-08-12T00:49:16.188Z,65.56
2023-08-12T00:50:16.193Z,65.66
2023-08-12T00:51:16.188Z,65.66
2023-08-12T00:52:16.154Z,65.56
2023-08-12T00:53:16.141Z,65.56
2023-08-12T00:54:16.142Z,65.56
2023-08-12T00:55:16.111Z,65.56
2023-08-12T00:56:16.102Z,65.56
2023-08-12T00:57:16.497Z,65.59
2023-08-12T00:58:16.078Z,65.66
2023-08-12T00:59:16.063Z,65.56
2023-08-12T01:00:16.064Z,65.59
2023-08-12T01:01:16.080Z,65.56
2023-08-12T01:02:16.054Z,65.69
2023-08-12T01:03:16.053Z,65.66
2023-08-12T01:04:15.993Z,65.66
2023-08-12T01:05:16.006Z,65.59
2023-08-12T01:06:15.969Z,65.56
2023-08-12T01:07:15.981Z,65.56
2023-08-12T01:08:15.944Z,65.59
2023-08-12T01:09:15.938Z,65.59
2023-08-12T01:10:15.919Z,65.56
2023-08-12T01:11:15.905Z,65.59
2023-08-12T01:12:15.925Z,65.59
2023-08-12T01:13:15.885Z,65.59
2023-08-12T01:14:15.881Z,65.49
2023-08-12T01:15:15.863Z,65.49
2023-08-12T01:16:15.869Z,65.49
2023-08-12T01:17:15.837Z,65.49
2023-08-12T01:18:15.823Z,65.49
2023-08-12T01:19:15.822Z,65.49
2023-08-12T01:20:15.822Z,65.49
2023-08-12T01:21:15.781Z,65.49
2023-08-12T01:22:15.771Z,65.49
2023-08-12T01:23:15.872Z,65.49
2023-08-12T01:24:15.740Z,65.49
2023-08-12T01:25:15.733Z,65.39
2023-08-12T01:26:15.714Z,65.39
2023-08-12T01:27:16.000Z,65.39
2023-08-12T01:28:15.708Z,65.39
2023-08-12T01:29:15.681Z,65.39
2023-08-12T01:30:15.677Z,65.39
2023-08-12T01:31:15.711Z,65.39
2023-08-12T01:32:15.651Z,65.39
2023-08-12T01:33:15.625Z,65.39
2023-08-12T01:34:15.616Z,65.39
2023-08-12T01:35:15.601Z,65.39
2023-08-12T01:36:15.608Z,65.29
2023-08-12T01:37:15.577Z,65.29
2023-08-12T01:38:15.561Z,65.29
2023-08-12T01:39:15.578Z,65.29
2023-08-12T01:40:15.542Z,65.29
2023-08-12T01:41:15.537Z,65.29
2023-08-12T01:42:15.516Z,65.29
2023-08-12T01:43:15.493Z,65.29
2023-08-12T01:44:15.487Z,65.29
2023-08-12T01:45:15.471Z,65.29
2023-08-12T01:46:15.498Z,65.29
2023-08-12T01:47:15.448Z,65.29
2023-08-12T01:48:15.429Z,65.29
2023-08-12T01:49:15.418Z,65.29
2023-08-12T01:50:15.420Z,65.29
2023-08-12T01:51:15.392Z,65.29
2023-08-12T01:52:15.387Z,65.29
2023-08-12T01:53:15.363Z,65.29
2023-08-12T01:54:15.349Z,65.29
2023-08-12T01:55:15.364Z,65.29
2023-08-12T01:56:15.337Z,65.39
2023-08-12T01:57:15.497Z,65.39
2023-08-12T01:58:15.299Z,65.39
2023-08-12T01:59:15.286Z,65.39
2023-08-12T02:00:15.271Z,65.39
2023-08-12T02:01:15.284Z,65.39
2023-08-12T02:02:15.249Z,65.49
2023-08-12T02:03:15.323Z,65.39
2023-08-12T02:04:15.224Z,65.39
2023-08-12T02:05:15.211Z,65.39
2023-08-12T02:06:15.196Z,65.39
2023-08-12T02:07:15.193Z,65.39
2023-08-12T02:08:15.182Z,65.49
2023-08-12T02:09:15.157Z,65.49
2023-08-12T02:10:21.197Z,65.49
2023-08-12T02:11:15.137Z,65.49
2023-08-12T02:12:15.119Z,65.49
2023-08-12T02:13:15.102Z,65.49
2023-08-12T02:14:15.094Z,65.49
2023-08-12T02:15:15.102Z,65.49
2023-08-12T02:16:15.084Z,65.49
2023-08-12T02:17:15.049Z,65.49
2023-08-12T02:18:15.047Z,65.49
2023-08-12T02:19:15.027Z,65.39
2023-08-12T02:20:15.013Z,65.39
2023-08-12T02:21:15.012Z,65.39
2023-08-12T02:22:14.988Z,65.39
2023-08-12T02:23:14.979Z,65.39
2023-08-12T02:24:14.964Z,65.39
2023-08-12T02:25:14.953Z,65.39
2023-08-12T02:26:14.963Z,65.39
2023-08-12T02:27:15.081Z,65.39
2023-08-12T02:28:14.916Z,65.39
2023-08-12T02:29:14.912Z,65.39
2023-08-12T02:30:14.902Z,65.39
2023-08-12T02:31:14.895Z,65.39
2023-08-12T02:32:14.865Z,65.29
2023-08-12T02:33:14.850Z,65.29
2023-08-12T02:34:14.836Z,65.29
2023-08-12T02:35:14.828Z,65.29
2023-08-12T02:36:14.812Z,65.29
2023-08-12T02:37:14.916Z,65.29
2023-08-12T02:38:14.795Z,65.39
2023-08-12T02:39:14.774Z,65.39
2023-08-12T02:40:14.764Z,65.39
2023-08-12T02:41:14.750Z,65.39
2023-08-12T02:42:14.830Z,65.49
2023-08-12T02:43:14.721Z,65.39
2023-08-12T02:44:14.713Z,65.39
2023-08-12T02:45:14.702Z,65.49
2023-08-12T02:46:14.730Z,65.39
2023-08-12T02:47:14.983Z,65.49
2023-08-12T02:48:14.660Z,65.39
2023-08-12T02:49:14.649Z,65.49
2023-08-12T02:50:14.634Z,65.39
2023-08-12T02:51:14.618Z,65.49
2023-08-12T02:52:14.618Z,65.39
2023-08-12T02:53:14.593Z,65.39
2023-08-12T02:54:14.581Z,65.39
2023-08-12T02:55:14.572Z,65.39
2023-08-12T02:56:14.553Z,65.39
2023-08-12T02:57:14.550Z,65.39
2023-08-12T02:58:14.575Z,65.39
2023-08-12T02:59:14.520Z,65.39
2023-08-12T03:00:14.510Z,65.39
2023-08-12T03:01:14.528Z,65.39
2023-08-12T03:02:14.535Z,65.29
2023-08-12T03:03:14.548Z,65.39
2023-08-12T03:04:14.451Z,65.39
2023-08-12T03:05:14.445Z,65.39
2023-08-12T03:06:14.433Z,65.29
2023-08-12T03:07:14.613Z,65.29
2023-08-12T03:08:14.403Z,65.29
2023-08-12T03:09:17.352Z,65.29
2023-08-12T03:10:14.372Z,65.29
2023-08-12T03:11:14.365Z,65.29
2023-08-12T03:12:14.360Z,65.29
2023-08-12T03:13:14.332Z,65.29
2023-08-12T03:14:14.348Z,65.29
2023-08-12T03:15:14.313Z,65.29
2023-08-12T03:16:20.301Z,65.29
2023-08-12T03:17:14.613Z,65.29
2023-08-12T03:18:14.278Z,65.29
2023-08-12T03:19:14.253Z,65.29
2023-08-12T03:20:14.249Z,65.29
2023-08-12T03:21:14.259Z,65.29
2023-08-12T03:22:14.232Z,65.29
2023-08-12T03:23:14.208Z,65.29
2023-08-12T03:24:14.189Z,65.29
2023-08-12T03:25:14.206Z,65.29
2023-08-12T03:26:14.168Z,65.29
2023-08-12T03:27:14.313Z,65.29
2023-08-12T03:28:14.157Z,65.29
2023-08-12T03:29:14.166Z,65.29
2023-08-12T03:30:14.161Z,65.29
2023-08-12T03:31:14.186Z,65.29
2023-08-12T03:32:14.117Z,65.29
2023-08-12T03:33:14.078Z,65.29
2023-08-12T03:34:14.058Z,65.29
2023-08-12T03:35:14.046Z,65.29
2023-08-12T03:36:14.033Z,65.29
2023-08-12T03:37:14.199Z,65.39
2023-08-12T03:38:14.012Z,65.39
2023-08-12T03:39:13.989Z,65.39
2023-08-12T03:40:13.977Z,65.29
2023-08-12T03:41:13.963Z,65.39
2023-08-12T03:42:13.954Z,65.39
2023-08-12T03:43:13.956Z,65.39
2023-08-12T03:44:13.925Z,65.39
2023-08-12T03:45:13.917Z,65.39
2023-08-12T03:46:13.943Z,65.29
2023-08-12T03:47:14.247Z,65.29
2023-08-12T03:48:13.874Z,65.29
2023-08-12T03:49:13.894Z,65.39
2023-08-12T03:50:13.858Z,65.39
2023-08-12T03:51:13.830Z,65.39
2023-08-12T03:52:13.820Z,65.29
2023-08-12T03:53:13.828Z,65.29
2023-08-12T03:54:13.795Z,65.39
2023-08-12T03:55:13.779Z,65.29
2023-08-12T03:56:13.765Z,65.29
2023-08-12T03:57:14.089Z,65.29
2023-08-12T03:58:13.741Z,65.29
2023-08-12T03:59:13.734Z,65.29
2023-08-12T04:00:13.716Z,65.29
2023-08-12T04:01:13.736Z,65.29
2023-08-12T04:02:13.765Z,65.29
2023-08-12T04:03:13.743Z,65.29
2023-08-12T04:04:14.589Z,65.29
2023-08-12T04:05:13.648Z,65.29
2023-08-12T04:06:13.635Z,65.29
2023-08-12T04:07:14.070Z,65.29
2023-08-12T04:08:13.608Z,65.29
2023-08-12T04:09:13.604Z,65.29
2023-08-12T04:10:13.583Z,65.29
2023-08-12T04:11:13.569Z,65.29
2023-08-12T04:12:13.561Z,65.29
2023-08-12T04:13:13.545Z,65.29
2023-08-12T04:14:13.531Z,65.29
2023-08-12T04:15:13.516Z,65.49
2023-08-12T04:16:13.580Z,65.89
2023-08-12T04:17:13.967Z,65.39
2023-08-12T04:18:13.508Z,65.49
2023-08-12T04:19:13.476Z,65.69
2023-08-12T04:20:13.455Z,65.79
2023-08-12T04:21:13.441Z,66.80
2023-08-12T04:22:13.428Z,66.10
2023-08-12T04:23:13.419Z,65.89
2023-08-12T04:24:13.400Z,65.79
2023-08-12T04:25:13.391Z,66.90
2023-08-12T04:26:13.374Z,65.99
2023-08-12T04:27:13.670Z,65.89
2023-08-12T04:28:13.348Z,65.79
2023-08-12T04:29:13.340Z,65.89
2023-08-12T04:30:13.331Z,65.89
2023-08-12T04:31:13.347Z,66.19
2023-08-12T04:32:13.303Z,67.10
2023-08-12T04:33:13.292Z,68.41
2023-08-12T04:34:13.294Z,67.70
2023-08-12T04:35:13.261Z,67.20
2023-08-12T04:36:13.245Z,66.50
2023-08-12T04:37:13.433Z,66.30
2023-08-12T04:38:13.217Z,66.19
2023-08-12T04:39:13.206Z,66.90
2023-08-12T04:40:13.194Z,66.50
2023-08-12T04:41:13.200Z,66.30
2023-08-12T04:42:13.167Z,66.30
2023-08-12T04:43:13.152Z,66.40
2023-08-12T04:44:13.141Z,66.40
2023-08-12T04:45:13.132Z,68.21
2023-08-12T04:46:13.155Z,67.81
2023-08-12T04:47:13.348Z,68.41
2023-08-12T04:48:13.143Z,67.10
2023-08-12T04:49:13.079Z,67.00
2023-08-12T04:50:13.088Z,66.70
2023-08-12T04:51:13.055Z,67.20
2023-08-12T04:52:13.044Z,68.31
2023-08-12T04:53:13.034Z,67.51
2023-08-12T04:54:13.036Z,68.61
2023-08-12T04:55:13.005Z,68.51
2023-08-12T04:56:12.986Z,68.51
2023-08-12T04:57:13.134Z,69.82
2023-08-12T04:58:12.959Z,68.61
2023-08-12T04:59:12.950Z,69.62
2023-08-12T05:00:12.942Z,70.22
2023-08-12T05:01:12.920Z,69.72
2023-08-12T05:02:12.935Z,72.03
2023-08-12T05:03:13.015Z,71.73
2023-08-12T05:04:12.884Z,72.63
2023-08-12T05:05:12.930Z,69.42
2023-08-12T05:06:12.881Z,68.01
2023-08-12T05:07:12.840Z,67.60
2023-08-12T05:08:12.834Z,67.51
2023-08-12T05:09:12.818Z,67.70
2023-08-12T05:10:12.812Z,67.90
2023-08-12T05:11:12.801Z,67.40
2023-08-12T05:12:13.043Z,67.40
2023-08-12T05:13:12.771Z,67.51
2023-08-12T05:14:12.752Z,67.30
2023-08-12T05:15:12.742Z,67.30
2023-08-12T05:16:12.752Z,67.30
2023-08-12T05:17:12.724Z,67.51
2023-08-12T05:18:12.706Z,67.40
2023-08-12T05:19:12.703Z,67.20
2023-08-12T05:20:12.685Z,67.20
2023-08-12T05:21:12.668Z,67.20
2023-08-12T05:22:12.989Z,67.20
2023-08-12T05:23:12.702Z,67.10
2023-08-12T05:24:12.630Z,67.00
2023-08-12T05:25:12.616Z,67.51
2023-08-12T05:26:12.605Z,69.11
2023-08-12T05:27:12.596Z,67.70
2023-08-12T05:28:12.569Z,68.61
2023-08-12T05:29:12.574Z,68.10
2023-08-12T05:30:12.553Z,67.81
2023-08-12T05:31:12.537Z,67.90
2023-08-12T05:32:12.670Z,67.90
2023-08-12T05:33:12.594Z,67.40
2023-08-12T05:34:12.498Z,67.30
2023-08-12T05:35:12.511Z,67.40
2023-08-12T05:36:12.475Z,67.40
2023-08-12T05:37:12.459Z,67.51
2023-08-12T05:38:12.473Z,67.30
2023-08-12T05:39:12.432Z,67.20
2023-08-12T05:40:12.426Z,67.00
2023-08-12T05:41:12.411Z,67.51
2023-08-12T05:42:12.574Z,67.00
2023-08-12T05:43:12.383Z,67.00
2023-08-12T05:44:12.372Z,66.90
2023-08-12T05:45:12.364Z,66.80
2023-08-12T05:46:12.402Z,67.40
2023-08-12T05:47:12.330Z,67.10
2023-08-12T05:48:12.379Z,66.90
2023-08-12T05:49:12.303Z,67.00
2023-08-12T05:50:12.287Z,67.10
2023-08-12T05:51:12.280Z,66.90
2023-08-12T05:52:12.661Z,66.80
2023-08-12T05:53:12.250Z,66.80
2023-08-12T05:54:12.262Z,66.80
2023-08-12T05:55:12.319Z,66.70
2023-08-12T05:56:12.272Z,66.60
2023-08-12T05:57:12.267Z,66.50
2023-08-12T05:58:12.299Z,66.40
2023-08-12T05:59:12.272Z,66.40
2023-08-12T06:00:12.175Z,66.30
2023-08-12T06:01:12.165Z,66.30
2023-08-12T06:02:12.472Z,66.30
2023-08-12T06:03:12.177Z,66.40
2023-08-12T06:04:12.113Z,66.30
2023-08-12T06:05:12.092Z,66.40
2023-08-12T06:06:12.088Z,66.50
2023-08-12T06:07:12.068Z,66.50
2023-08-12T06:08:12.063Z,66.50
2023-08-12T06:09:12.042Z,66.60
2023-08-12T06:10:12.060Z,67.70
2023-08-12T06:11:12.013Z,67.81
2023-08-12T06:12:12.296Z,68.61
2023-08-12T06:13:11.990Z,67.30
2023-08-12T06:14:11.976Z,67.00
2023-08-12T06:15:11.962Z,66.80
2023-08-12T06:16:12.016Z,66.70
2023-08-12T06:17:11.930Z,67.10
2023-08-12T06:18:11.963Z,67.10
2023-08-12T06:19:11.909Z,66.70
2023-08-12T06:20:11.902Z,68.21
2023-08-12T06:21:11.889Z,68.41
2023-08-12T06:22:12.117Z,67.00
2023-08-12T06:23:11.855Z,66.80
2023-08-12T06:24:11.848Z,66.80
2023-08-12T06:25:11.831Z,67.40
2023-08-12T06:26:11.840Z,68.10
2023-08-12T06:27:11.888Z,67.00
2023-08-12T06:28:11.796Z,67.00
2023-08-12T06:29:11.781Z,66.90
2023-08-12T06:30:11.767Z,66.70
2023-08-12T06:31:11.793Z,66.70
2023-08-12T06:32:11.954Z,66.60
2023-08-12T06:33:11.726Z,66.60
2023-08-12T06:34:11.720Z,66.60
2023-08-12T06:35:11.703Z,66.60
2023-08-12T06:36:11.689Z,66.60
2023-08-12T06:37:11.673Z,66.70
2023-08-12T06:38:11.665Z,66.60
2023-08-12T06:39:11.647Z,66.50
2023-08-12T06:40:11.642Z,66.60
2023-08-12T06:41:11.628Z,66.50
2023-08-12T06:42:11.830Z,66.50
2023-08-12T06:43:11.604Z,66.50
2023-08-12T06:44:11.608Z,66.50
2023-08-12T06:45:11.572Z,66.40
2023-08-12T06:46:11.600Z,66.70
2023-08-12T06:47:11.544Z,67.10
2023-08-12T06:48:11.610Z,67.40
2023-08-12T06:49:11.520Z,66.60
2023-08-12T06:50:11.509Z,66.60
2023-08-12T06:51:11.576Z,66.80
2023-08-12T06:52:11.811Z,67.60
2023-08-12T06:53:11.468Z,67.20
2023-08-12T06:54:11.458Z,66.80
2023-08-12T06:55:11.440Z,67.00
2023-08-12T06:56:11.429Z,67.51
2023-08-12T06:57:11.444Z,67.40
2023-08-12T06:58:11.423Z,66.80
2023-08-12T06:59:11.391Z,66.80
2023-08-12T07:00:11.377Z,66.70
2023-08-12T07:01:13.657Z,66.60
2023-08-12T07:02:11.660Z,66.60
2023-08-12T07:03:11.490Z,66.50
2023-08-12T07:04:11.320Z,66.70
2023-08-12T07:05:11.313Z,66.50
2023-08-12T07:06:11.304Z,68.51
2023-08-12T07:07:11.286Z,69.51
2023-08-12T07:08:11.272Z,68.61
2023-08-12T07:09:11.263Z,67.40
2023-08-12T07:10:11.257Z,67.00
2023-08-12T07:11:11.241Z,67.90
2023-08-12T07:12:11.745Z,68.81
2023-08-12T07:13:11.211Z,70.12
2023-08-12T07:14:11.220Z,68.31
2023-08-12T07:15:11.193Z,67.70
2023-08-12T07:16:11.188Z,68.21
2023-08-12T07:17:11.156Z,67.60
2023-08-12T07:18:11.138Z,67.30
2023-08-12T07:19:11.129Z,67.90
2023-08-12T07:20:11.131Z,67.81
2023-08-12T07:21:11.154Z,67.30
2023-08-12T07:22:11.438Z,67.10
2023-08-12T07:23:11.085Z,67.00
2023-08-12T07:24:11.062Z,66.90
2023-08-12T07:25:11.060Z,66.90
2023-08-12T07:26:11.034Z,67.20
2023-08-12T07:27:11.026Z,68.01
2023-08-12T07:28:11.024Z,67.70
2023-08-12T07:29:11.008Z,67.70
2023-08-12T07:30:17.016Z,68.31
2023-08-12T07:31:11.030Z,68.10
2023-08-12T07:32:11.269Z,67.40
2023-08-12T07:33:10.981Z,67.30
2023-08-12T07:34:10.940Z,67.20
2023-08-12T07:35:10.922Z,67.10
2023-08-12T07:36:10.910Z,67.00
2023-08-12T07:37:10.891Z,67.20
2023-08-12T07:38:10.876Z,67.30
2023-08-12T07:39:10.867Z,67.51
2023-08-12T07:40:10.864Z,67.10
2023-08-12T07:41:10.842Z,66.90
2023-08-12T07:42:11.092Z,66.90
2023-08-12T07:43:10.816Z,66.80
2023-08-12T07:44:10.801Z,67.70
2023-08-12T07:45:10.786Z,69.01
2023-08-12T07:46:10.817Z,68.51
2023-08-12T07:47:10.761Z,67.51
2023-08-12T07:48:10.765Z,67.20
2023-08-12T07:49:10.733Z,67.90
2023-08-12T07:50:10.723Z,69.51
2023-08-12T07:51:10.706Z,69.92
2023-08-12T07:52:10.895Z,69.62
2023-08-12T07:53:10.683Z,68.71
2023-08-12T07:54:10.673Z,70.52
2023-08-12T07:55:10.659Z,69.82
2023-08-12T07:56:10.655Z,69.21
2023-08-12T07:57:10.629Z,68.91
2023-08-12T07:58:10.626Z,68.51
2023-08-12T07:59:10.605Z,69.92
2023-08-12T08:00:10.586Z,68.71
2023-08-12T08:01:10.606Z,69.72
2023-08-12T08:02:10.950Z,69.82
2023-08-12T08:03:10.603Z,68.81
2023-08-12T08:04:10.572Z,67.81
2023-08-12T08:05:10.589Z,67.60
2023-08-12T08:06:10.518Z,68.10
2023-08-12T08:07:10.498Z,68.41
2023-08-12T08:08:10.513Z,67.90
2023-08-12T08:09:10.473Z,69.92
2023-08-12T08:10:10.457Z,70.62
2023-08-12T08:11:10.445Z,69.51
2023-08-12T08:12:10.559Z,69.72
2023-08-12T08:13:10.415Z,69.62
2023-08-12T08:14:10.400Z,70.42
2023-08-12T08:15:10.388Z,69.82
2023-08-12T08:16:10.428Z,69.92
2023-08-12T08:17:10.476Z,70.32
2023-08-12T08:18:10.605Z,69.82
2023-08-12T08:19:12.864Z,68.81
2023-08-12T08:20:10.320Z,68.31
2023-08-12T08:21:10.308Z,68.81
2023-08-12T08:22:10.494Z,69.21
2023-08-12T08:23:10.280Z,71.83
2023-08-12T08:24:10.268Z,70.12
2023-08-12T08:25:10.261Z,70.32
2023-08-12T08:26:10.246Z,69.51
2023-08-12T08:27:10.228Z,70.52
2023-08-12T08:28:10.222Z,69.21
2023-08-12T08:29:10.220Z,68.41
2023-08-12T08:30:10.195Z,67.81
2023-08-12T08:31:10.199Z,69.72
2023-08-12T08:32:10.539Z,69.01
2023-08-12T08:33:10.214Z,68.81
2023-08-12T08:34:10.159Z,67.51
2023-08-12T08:35:10.204Z,68.21
2023-08-12T08:36:10.117Z,68.88
2023-08-12T08:37:10.097Z,68.78
2023-08-12T08:38:10.082Z,67.87
2023-08-12T08:39:10.074Z,67.87
2023-08-12T08:40:10.057Z,67.87
2023-08-12T08:41:10.048Z,69.08
2023-08-12T08:42:10.357Z,67.87
2023-08-12T08:43:10.030Z,67.27
2023-08-12T08:44:10.059Z,68.38
2023-08-12T08:45:09.999Z,67.98
2023-08-12T08:46:10.049Z,68.38
2023-08-12T08:47:09.971Z,68.58
2023-08-12T08:48:09.962Z,68.68
2023-08-12T08:49:09.956Z,68.68
2023-08-12T08:50:09.958Z,68.18
2023-08-12T08:51:09.925Z,68.18
2023-08-12T08:52:10.218Z,68.18
2023-08-12T08:53:09.893Z,68.38
2023-08-12T08:54:09.879Z,68.48
2023-08-12T08:55:09.867Z,68.48
2023-08-12T08:56:14.812Z,68.48
2023-08-12T08:57:15.102Z,68.28
2023-08-12T08:59:09.819Z,68.07
2023-08-12T09:00:16.473Z,68.18
2023-08-12T09:01:10.844Z,68.38
2023-08-12T09:02:09.932Z,68.68
2023-08-12T09:03:09.798Z,67.98
2023-08-12T09:04:09.750Z,68.07
2023-08-12T09:05:09.810Z,68.28
2023-08-12T09:06:09.759Z,67.98
2023-08-12T09:07:09.714Z,67.47
2023-08-12T09:08:09.697Z,67.47
2023-08-12T09:09:09.685Z,67.37
2023-08-12T09:10:09.681Z,67.98
2023-08-12T09:11:09.667Z,67.17
2023-08-12T09:12:09.767Z,66.87
2023-08-12T09:13:09.658Z,68.48
2023-08-12T09:14:09.636Z,68.14
2023-08-12T09:15:09.606Z,67.04
2023-08-12T09:16:09.645Z,66.83
2023-08-12T09:17:09.581Z,66.63
2023-08-12T09:18:09.570Z,66.43
2023-08-12T09:19:09.557Z,67.14
2023-08-12T09:20:09.547Z,66.63
2023-08-12T09:21:09.538Z,66.33
2023-08-12T09:22:09.881Z,66.13
2023-08-12T09:23:09.506Z,66.43
2023-08-12T09:24:09.518Z,66.23
2023-08-12T09:25:09.488Z,66.94
2023-08-12T09:26:09.469Z,66.13
2023-08-12T09:27:09.459Z,65.93
2023-08-12T09:28:09.438Z,65.93
2023-08-12T09:29:09.432Z,66.23
2023-08-12T09:30:09.765Z,66.13
2023-08-12T09:31:09.408Z,66.03
2023-08-12T09:32:09.423Z,65.63
2023-08-12T09:33:09.374Z,66.54
2023-08-12T09:34:09.363Z,65.63
2023-08-12T09:35:09.357Z,65.73
2023-08-12T09:36:09.345Z,65.53
2023-08-12T09:37:09.330Z,65.53
2023-08-12T09:38:09.360Z,66.23
2023-08-12T09:39:09.300Z,65.53
2023-08-12T09:40:09.289Z,65.33
2023-08-12T09:41:09.286Z,65.33
2023-08-12T09:42:09.336Z,65.23
2023-08-12T09:43:09.253Z,65.33
2023-08-12T09:44:09.236Z,65.33
2023-08-12T09:45:09.231Z,65.53
2023-08-12T09:46:09.227Z,66.54
2023-08-12T09:47:09.204Z,66.03
2023-08-12T09:48:09.204Z,65.53
2023-08-12T09:49:09.177Z,65.23
2023-08-12T09:50:09.163Z,65.23
2023-08-12T09:51:09.154Z,65.83
2023-08-12T09:52:09.144Z,66.13
2023-08-12T09:53:09.122Z,65.53
2023-08-12T09:54:09.132Z,66.03
2023-08-12T09:55:09.099Z,65.23
2023-08-12T09:56:09.081Z,65.43
2023-08-12T09:57:09.079Z,64.92
2023-08-12T09:58:09.056Z,65.03
2023-08-12T09:59:09.049Z,65.13
2023-08-12T10:00:09.031Z,65.13
2023-08-12T10:01:09.105Z,64.92
2023-08-12T10:02:09.076Z,64.92
2023-08-12T10:03:08.995Z,65.33
2023-08-12T10:04:08.985Z,64.83
2023-08-12T10:05:08.977Z,64.83
2023-08-12T10:06:08.956Z,65.23
2023-08-12T10:07:08.943Z,65.73
2023-08-12T10:08:08.928Z,66.23
2023-08-12T10:09:08.913Z,65.33
2023-08-12T10:10:08.967Z,65.30
2023-08-12T10:11:13.484Z,65.00
2023-08-12T10:12:08.882Z,64.59
2023-08-12T10:13:08.917Z,64.49
2023-08-12T10:14:08.860Z,64.80
2023-08-12T10:15:08.835Z,64.80
2023-08-12T10:16:08.832Z,64.30
2023-08-12T10:17:08.808Z,64.80
2023-08-12T10:18:11.868Z,65.80
2023-08-12T10:19:08.793Z,65.80
2023-08-12T10:20:08.772Z,65.87
2023-08-12T10:21:08.818Z,64.27
2023-08-12T10:22:08.752Z,65.06
2023-08-12T10:23:08.750Z,64.36
2023-08-12T10:24:08.721Z,64.09
2023-08-12T10:25:08.712Z,64.09
2023-08-12T10:26:08.726Z,64.30
2023-08-12T10:27:08.682Z,64.19
2023-08-12T10:28:08.677Z,64.19
2023-08-12T10:29:08.661Z,64.30
2023-08-12T10:30:08.663Z,64.39
2023-08-12T10:31:08.962Z,64.19
2023-08-12T10:32:08.623Z,64.39
2023-08-12T10:33:08.602Z,64.19
2023-08-12T10:34:08.596Z,64.19
2023-08-12T10:35:08.579Z,64.19
2023-08-12T10:36:08.572Z,64.19
2023-08-12T10:37:08.551Z,64.30
2023-08-12T10:38:08.541Z,64.09
2023-08-12T10:39:08.529Z,64.30
2023-08-12T10:40:08.581Z,64.30
2023-08-12T10:41:08.508Z,64.30
2023-08-12T10:42:08.516Z,64.39
2023-08-12T10:43:08.481Z,64.59
2023-08-12T10:44:08.464Z,64.49
2023-08-12T10:45:08.447Z,65.00
2023-08-12T10:46:08.443Z,64.49
2023-08-12T10:47:08.557Z,64.30
2023-08-12T10:48:08.449Z,64.39
2023-08-12T10:49:08.396Z,65.70
2023-08-12T10:50:08.383Z,64.59
2023-08-12T10:51:08.381Z,64.39
2023-08-12T10:52:08.377Z,65.50
2023-08-12T10:53:08.345Z,65.80
2023-08-12T10:54:08.338Z,65.40
2023-08-12T10:55:08.323Z,64.69
2023-08-12T10:56:08.356Z,64.39
2023-08-12T10:57:08.303Z,64.39
2023-08-12T10:58:08.385Z,64.89
2023-08-12T10:59:08.284Z,64.49
2023-08-12T11:00:08.266Z,65.50
2023-08-12T11:01:08.291Z,64.89
2023-08-12T11:02:08.264Z,65.10
2023-08-12T11:03:09.765Z,65.20
2023-08-12T11:04:08.249Z,64.80
2023-08-12T11:05:08.238Z,64.59
2023-08-12T11:06:08.218Z,64.80
2023-08-12T11:07:08.174Z,66.10
2023-08-12T11:08:08.211Z,64.69
2023-08-12T11:09:08.148Z,64.89
2023-08-12T11:10:08.140Z,65.80
2023-08-12T11:11:08.125Z,65.10
2023-08-12T11:12:08.110Z,65.00
2023-08-12T11:13:08.098Z,65.50
2023-08-12T11:14:08.123Z,64.59
2023-08-12T11:15:08.075Z,64.69
2023-08-12T11:16:08.184Z,65.20
2023-08-12T11:17:43.068Z,64.49
2023-08-12T11:18:42.993Z,65.00
2023-08-12T11:19:42.980Z,64.69
2023-08-12T11:20:42.964Z,64.56
2023-08-12T11:21:42.944Z,64.39
2023-08-12T11:22:42.936Z,64.39
2023-08-12T11:23:42.919Z,64.89
2023-08-12T11:24:42.917Z,64.49
2023-08-12T11:25:42.892Z,64.49
2023-08-12T11:26:42.881Z,64.59
2023-08-12T11:27:42.873Z,64.39
2023-08-12T11:28:48.860Z,64.39
2023-08-12T11:29:42.868Z,64.39
2023-08-12T11:30:42.858Z,64.59
2023-08-12T11:31:42.813Z,64.49
2023-08-12T11:32:42.816Z,64.49
2023-08-12T11:33:42.789Z,65.10
2023-08-12T11:34:42.778Z,64.56
2023-08-12T11:35:42.766Z,64.46
2023-08-12T11:36:42.752Z,64.86
2023-08-12T11:37:42.734Z,65.17
2023-08-12T11:38:42.724Z,64.69
2023-08-12T11:39:42.711Z,65.77
2023-08-12T11:40:42.698Z,64.77
2023-08-12T11:41:42.690Z,64.80
2023-08-12T11:42:42.675Z,64.69
2023-08-12T11:43:42.669Z,64.80
2023-08-12T11:44:42.655Z,64.69
2023-08-12T11:45:42.658Z,64.59
2023-08-12T11:46:42.620Z,64.69
2023-08-12T11:47:42.683Z,65.00
2023-08-12T11:48:42.593Z,65.00
2023-08-12T11:49:42.586Z,66.10
2023-08-12T11:50:42.568Z,67.38
2023-08-12T11:51:42.558Z,65.97
2023-08-12T11:52:42.544Z,65.47
2023-08-12T11:53:42.528Z,66.27
2023-08-12T11:54:42.519Z,65.87
2023-08-12T11:55:42.505Z,65.17
2023-08-12T11:56:42.488Z,64.77
2023-08-12T11:57:42.478Z,65.36
2023-08-12T11:58:52.576Z,64.97
2023-08-12T11:59:43.496Z,65.47
2023-08-12T12:00:42.442Z,66.47
2023-08-12T12:01:42.519Z,65.06
2023-08-12T12:02:42.463Z,66.37
2023-08-12T12:03:42.454Z,66.37
2023-08-12T12:04:42.389Z,65.36
2023-08-12T12:05:42.392Z,65.47
2023-08-12T12:06:42.390Z,64.66
2023-08-12T12:07:42.353Z,64.86
2023-08-12T12:08:42.335Z,65.47
2023-08-12T12:09:42.324Z,65.27
2023-08-12T12:10:42.318Z,64.66
2023-08-12T12:11:42.298Z,65.47
2023-08-12T12:12:42.288Z,64.77
2023-08-12T12:13:42.271Z,64.66
2023-08-12T12:14:42.257Z,64.77
2023-08-12T12:15:42.246Z,64.77
2023-08-12T12:16:42.259Z,65.06
2023-08-12T12:17:42.271Z,64.66
2023-08-12T12:18:42.205Z,65.06
2023-08-12T12:19:42.196Z,64.77
2023-08-12T12:20:42.181Z,64.66
2023-08-12T12:21:42.166Z,64.56
2023-08-12T12:22:42.150Z,64.66
2023-08-12T12:23:42.138Z,64.77
2023-08-12T12:24:42.124Z,64.77
2023-08-12T12:25:42.125Z,64.77
2023-08-12T12:26:42.106Z,64.77
2023-08-12T12:27:42.089Z,64.77
2023-08-12T12:28:42.079Z,65.47
2023-08-12T12:29:42.060Z,65.06
2023-08-12T12:30:42.082Z,64.77
2023-08-12T12:31:42.037Z,64.86
2023-08-12T12:32:42.057Z,64.86
2023-08-12T12:33:42.046Z,65.36
2023-08-12T12:34:42.001Z,64.86
2023-08-12T12:35:56.624Z,64.86
2023-08-12T12:36:43.005Z,64.86
2023-08-12T12:37:41.957Z,64.97
2023-08-12T12:38:41.946Z,65.57
2023-08-12T12:39:41.939Z,64.97
2023-08-12T12:40:41.918Z,66.17
2023-08-12T12:41:41.905Z,65.06
2023-08-12T12:42:41.892Z,64.77
2023-08-12T12:43:41.882Z,64.97
2023-08-12T12:44:41.865Z,64.86
2023-08-12T12:45:41.855Z,64.77
2023-08-12T12:46:41.838Z,64.97
2023-08-12T12:47:41.861Z,65.57
2023-08-12T12:48:41.810Z,65.47
2023-08-12T12:49:41.826Z,65.17
2023-08-12T12:50:41.788Z,65.06
2023-08-12T12:51:41.777Z,64.97
2023-08-12T12:52:43.874Z,64.86
2023-08-12T12:53:41.756Z,65.06